EZY268A EGKK-EGPE
Flight info
| Callsign | EZY268A |
|---|---|
| Flight time | 1h 15m |
| Altitude | 36000 |
| Route | LAM L10 BPK UN601 RIBEL DCT ABEVI DCT INPIP DCT TLA DCT FOYLE N560 NESDI DCT GUSSI |
| Aircraft | A320/M-SDE3FGHIRWY/LB1 |
Departure
| Time | 2026-05-05 21:26 |
|---|---|
| Airport | London Gatwick Airport (EGKK) |
Arrival
| Time | 2026-05-05 22:41 |
|---|---|
| Airport | Inverness Airport (EGPE) |
| Time | Latitude | Longitude | Altitude | Speed | Heading |
|---|---|---|---|---|---|
| 2026-05-05 20:53 | 51.15818 | -0.17932 | 206 ft | 0 kts | 78° |
| 2026-05-05 21:15 | 51.15815 | -0.17954 | 216 ft | 4 kts | 79° |
| 2026-05-05 21:15 | 51.15811 | -0.17997 | 213 ft | 4 kts | 86° |
| 2026-05-05 21:16 | 51.15811 | -0.18039 | 214 ft | 4 kts | 104° |
| 2026-05-05 21:16 | 51.15822 | -0.18070 | 216 ft | 3 kts | 162° |
| 2026-05-05 21:16 | 51.15825 | -0.18072 | 216 ft | 0 kts | 168° |
| 2026-05-05 21:19 | 51.15801 | -0.18065 | 211 ft | 9 kts | 168° |
| 2026-05-05 21:20 | 51.15713 | -0.18038 | 207 ft | 11 kts | 176° |
| 2026-05-05 21:20 | 51.15674 | -0.18118 | 213 ft | 9 kts | 259° |
| 2026-05-05 21:20 | 51.15662 | -0.18228 | 214 ft | 13 kts | 261° |
| 2026-05-05 21:20 | 51.15639 | -0.18404 | 204 ft | 18 kts | 256° |
| 2026-05-05 21:21 | 51.15610 | -0.18607 | 204 ft | 19 kts | 257° |
| 2026-05-05 21:21 | 51.15576 | -0.18801 | 213 ft | 17 kts | 230° |
| 2026-05-05 21:21 | 51.15504 | -0.18810 | 208 ft | 16 kts | 168° |
| 2026-05-05 21:21 | 51.15386 | -0.18772 | 209 ft | 17 kts | 169° |
| 2026-05-05 21:22 | 51.15267 | -0.18728 | 214 ft | 18 kts | 168° |
| 2026-05-05 21:22 | 51.15161 | -0.18697 | 210 ft | 14 kts | 183° |
| 2026-05-05 21:22 | 51.15118 | -0.18821 | 209 ft | 13 kts | 257° |
| 2026-05-05 21:22 | 51.15095 | -0.18991 | 206 ft | 19 kts | 258° |
| 2026-05-05 21:23 | 51.15066 | -0.19195 | 204 ft | 18 kts | 258° |
| 2026-05-05 21:23 | 51.15040 | -0.19382 | 215 ft | 16 kts | 257° |
| 2026-05-05 21:23 | 51.15017 | -0.19552 | 210 ft | 16 kts | 258° |
| 2026-05-05 21:23 | 51.14992 | -0.19732 | 204 ft | 18 kts | 257° |
| 2026-05-05 21:24 | 51.14962 | -0.19954 | 204 ft | 22 kts | 258° |
| 2026-05-05 21:24 | 51.14931 | -0.20181 | 207 ft | 20 kts | 258° |
| 2026-05-05 21:24 | 51.14902 | -0.20387 | 203 ft | 18 kts | 257° |
| 2026-05-05 21:24 | 51.14875 | -0.20579 | 208 ft | 19 kts | 253° |
| 2026-05-05 21:25 | 51.14763 | -0.20706 | 209 ft | 21 kts | 205° |
| 2026-05-05 21:25 | 51.14661 | -0.20689 | 208 ft | 11 kts | 171° |
| 2026-05-05 21:25 | 51.14595 | -0.20637 | 209 ft | 13 kts | 102° |
| 2026-05-05 21:25 | 51.14628 | -0.20389 | 209 ft | 48 kts | 78° |
| 2026-05-05 21:26 | 51.14753 | -0.19481 | 211 ft | 115 kts | 77° |
| 2026-05-05 21:26 | 51.14968 | -0.17916 | 236 ft | 162 kts | 77° |
| 2026-05-05 21:26 | 51.15173 | -0.16182 | 867 ft | 159 kts | 80° |
| 2026-05-05 21:26 | 51.15389 | -0.14450 | 1560 ft | 162 kts | 78° |
| 2026-05-05 21:27 | 51.15650 | -0.12591 | 1927 ft | 183 kts | 77° |
| 2026-05-05 21:27 | 51.15951 | -0.10481 | 2230 ft | 207 kts | 77° |
| 2026-05-05 21:27 | 51.16289 | -0.08120 | 2647 ft | 231 kts | 75° |
| 2026-05-05 21:27 | 51.17022 | -0.05731 | 3169 ft | 249 kts | 51° |
| 2026-05-05 21:28 | 51.18112 | -0.03535 | 4017 ft | 254 kts | 51° |
| 2026-05-05 21:28 | 51.19208 | -0.01305 | 4980 ft | 257 kts | 51° |
| 2026-05-05 21:28 | 51.20310 | 0.00963 | 5939 ft | 260 kts | 50° |
| 2026-05-05 21:28 | 51.21424 | 0.03269 | 6793 ft | 265 kts | 50° |
| 2026-05-05 21:29 | 51.22553 | 0.05612 | 7622 ft | 269 kts | 51° |
| 2026-05-05 21:29 | 51.23703 | 0.07999 | 8455 ft | 273 kts | 51° |
| 2026-05-05 21:29 | 51.24784 | 0.10524 | 9267 ft | 280 kts | 63° |
| 2026-05-05 21:29 | 51.25548 | 0.13411 | 10075 ft | 284 kts | 60° |
| 2026-05-05 21:30 | 51.26876 | 0.15699 | 10783 ft | 285 kts | 28° |
| 2026-05-05 21:30 | 51.28779 | 0.16517 | 11489 ft | 288 kts | 359° |
| 2026-05-05 21:30 | 51.30808 | 0.16208 | 12227 ft | 291 kts | 354° |
| 2026-05-05 21:30 | 51.32816 | 0.15986 | 12952 ft | 294 kts | 358° |
| 2026-05-05 21:31 | 51.34906 | 0.15890 | 13625 ft | 298 kts | 358° |
| 2026-05-05 21:31 | 51.36968 | 0.15855 | 14252 ft | 302 kts | 359° |
| 2026-05-05 21:31 | 51.39082 | 0.15836 | 14900 ft | 305 kts | 359° |
| 2026-05-05 21:31 | 51.41235 | 0.15809 | 15538 ft | 308 kts | 359° |
| 2026-05-05 21:32 | 51.43390 | 0.15769 | 16141 ft | 312 kts | 359° |
| 2026-05-05 21:32 | 51.45568 | 0.15719 | 16772 ft | 314 kts | 359° |
| 2026-05-05 21:32 | 51.47761 | 0.15663 | 17419 ft | 317 kts | 359° |
| 2026-05-05 21:32 | 51.49977 | 0.15601 | 18024 ft | 320 kts | 359° |
| 2026-05-05 21:33 | 51.52221 | 0.15532 | 18582 ft | 324 kts | 359° |
| 2026-05-05 21:33 | 51.54482 | 0.15460 | 19133 ft | 326 kts | 359° |
| 2026-05-05 21:33 | 51.56758 | 0.15390 | 19659 ft | 329 kts | 358° |
| 2026-05-05 21:33 | 51.59066 | 0.15319 | 20147 ft | 334 kts | 357° |
| 2026-05-05 21:34 | 51.61280 | 0.15027 | 20629 ft | 336 kts | 347° |
| 2026-05-05 21:34 | 51.63499 | 0.13850 | 21131 ft | 337 kts | 332° |
| 2026-05-05 21:34 | 51.65488 | 0.11809 | 21446 ft | 346 kts | 319° |
| 2026-05-05 21:34 | 51.67137 | 0.08907 | 21576 ft | 358 kts | 303° |
| 2026-05-05 21:35 | 51.68494 | 0.05506 | 21715 ft | 372 kts | 302° |
| 2026-05-05 21:35 | 51.69915 | 0.01927 | 21880 ft | 384 kts | 302° |
| 2026-05-05 21:35 | 51.71369 | -0.01718 | 22334 ft | 390 kts | 302° |
| 2026-05-05 21:35 | 51.72847 | -0.05401 | 22906 ft | 391 kts | 302° |
| 2026-05-05 21:36 | 51.74488 | -0.08913 | 23439 ft | 394 kts | 311° |
| 2026-05-05 21:36 | 51.76508 | -0.11922 | 23881 ft | 398 kts | 321° |
| 2026-05-05 21:36 | 51.78872 | -0.14383 | 24272 ft | 402 kts | 328° |
| 2026-05-05 21:36 | 51.81267 | -0.16639 | 24654 ft | 405 kts | 327° |
| 2026-05-05 21:37 | 51.83737 | -0.18981 | 24961 ft | 408 kts | 327° |
| 2026-05-05 21:37 | 51.86188 | -0.21322 | 25313 ft | 411 kts | 327° |
| 2026-05-05 21:37 | 51.88659 | -0.23690 | 25652 ft | 414 kts | 327° |
| 2026-05-05 21:37 | 51.91148 | -0.26075 | 25981 ft | 417 kts | 327° |
| 2026-05-05 21:38 | 51.93650 | -0.28474 | 26314 ft | 420 kts | 327° |
| 2026-05-05 21:38 | 51.96141 | -0.30868 | 26631 ft | 422 kts | 327° |
| 2026-05-05 21:38 | 51.98672 | -0.33301 | 26951 ft | 425 kts | 327° |
| 2026-05-05 21:38 | 52.01223 | -0.35754 | 27266 ft | 428 kts | 327° |
| 2026-05-05 21:39 | 52.03791 | -0.38224 | 27580 ft | 430 kts | 326° |
| 2026-05-05 21:39 | 52.06375 | -0.40714 | 27888 ft | 433 kts | 326° |
| 2026-05-05 21:39 | 52.08979 | -0.43230 | 28189 ft | 436 kts | 326° |
| 2026-05-05 21:39 | 52.11595 | -0.45762 | 28490 ft | 439 kts | 326° |
| 2026-05-05 21:40 | 52.14224 | -0.48304 | 28777 ft | 441 kts | 326° |
| 2026-05-05 21:40 | 52.16872 | -0.50870 | 29062 ft | 444 kts | 326° |
| 2026-05-05 21:40 | 52.19529 | -0.53446 | 29346 ft | 446 kts | 326° |
| 2026-05-05 21:40 | 52.22209 | -0.56045 | 29618 ft | 448 kts | 326° |
| 2026-05-05 21:41 | 52.24897 | -0.58656 | 29881 ft | 451 kts | 326° |
| 2026-05-05 21:41 | 52.27596 | -0.61286 | 30122 ft | 453 kts | 326° |
| 2026-05-05 21:41 | 52.30316 | -0.63945 | 30365 ft | 455 kts | 326° |
| 2026-05-05 21:41 | 52.33032 | -0.66605 | 30603 ft | 456 kts | 326° |
| 2026-05-05 21:42 | 52.35759 | -0.69277 | 30835 ft | 457 kts | 326° |
| 2026-05-05 21:42 | 52.38489 | -0.71950 | 31056 ft | 458 kts | 326° |
| 2026-05-05 21:42 | 52.41227 | -0.74632 | 31353 ft | 457 kts | 326° |
| 2026-05-05 21:42 | 52.43948 | -0.77301 | 31670 ft | 456 kts | 326° |
| 2026-05-05 21:43 | 52.46672 | -0.79982 | 31986 ft | 455 kts | 326° |
| 2026-05-05 21:43 | 52.49384 | -0.82659 | 32299 ft | 454 kts | 326° |
| 2026-05-05 21:43 | 52.52081 | -0.85325 | 32610 ft | 453 kts | 326° |
| 2026-05-05 21:43 | 52.54778 | -0.87991 | 32930 ft | 451 kts | 326° |
| 2026-05-05 21:44 | 52.57463 | -0.90651 | 33240 ft | 450 kts | 326° |
| 2026-05-05 21:44 | 52.60141 | -0.93313 | 33536 ft | 449 kts | 326° |
| 2026-05-05 21:44 | 52.62813 | -0.95973 | 33837 ft | 449 kts | 326° |
| 2026-05-05 21:44 | 52.65482 | -0.98627 | 34120 ft | 448 kts | 327° |
| 2026-05-05 21:45 | 52.68147 | -1.01279 | 34383 ft | 447 kts | 327° |
| 2026-05-05 21:45 | 52.70799 | -1.03926 | 34676 ft | 444 kts | 327° |
| 2026-05-05 21:45 | 52.73437 | -1.06560 | 34925 ft | 443 kts | 327° |
| 2026-05-05 21:45 | 52.76077 | -1.09198 | 35175 ft | 443 kts | 327° |
| 2026-05-05 21:46 | 52.78709 | -1.11830 | 35437 ft | 441 kts | 327° |
| 2026-05-05 21:46 | 52.81330 | -1.14460 | 35650 ft | 441 kts | 327° |
| 2026-05-05 21:46 | 52.83949 | -1.17092 | 35832 ft | 441 kts | 327° |
| 2026-05-05 21:46 | 52.86566 | -1.19725 | 36004 ft | 441 kts | 327° |
| 2026-05-05 21:47 | 52.91804 | -1.25008 | 36058 ft | 439 kts | 326° |
| 2026-05-05 21:47 | 52.96136 | -1.29387 | 36055 ft | 439 kts | 327° |
| 2026-05-05 21:48 | 53.02220 | -1.35558 | 36055 ft | 439 kts | 327° |
| 2026-05-05 21:48 | 53.07425 | -1.40852 | 36050 ft | 438 kts | 327° |
| 2026-05-05 21:49 | 53.11748 | -1.45257 | 36058 ft | 439 kts | 327° |
| 2026-05-05 21:49 | 53.16951 | -1.50574 | 36063 ft | 439 kts | 326° |
| 2026-05-05 21:50 | 53.22149 | -1.55913 | 36065 ft | 438 kts | 326° |
| 2026-05-05 21:50 | 53.27335 | -1.61260 | 36090 ft | 438 kts | 326° |
| 2026-05-05 21:51 | 53.32522 | -1.66598 | 36089 ft | 437 kts | 326° |
| 2026-05-05 21:51 | 53.37703 | -1.71951 | 36088 ft | 437 kts | 326° |
| 2026-05-05 21:52 | 53.45465 | -1.80014 | 36088 ft | 437 kts | 326° |
| 2026-05-05 21:53 | 53.50633 | -1.85396 | 36085 ft | 437 kts | 326° |
| 2026-05-05 21:53 | 53.55804 | -1.90780 | 36086 ft | 437 kts | 326° |
| 2026-05-05 21:54 | 53.60980 | -1.96196 | 36091 ft | 438 kts | 326° |
| 2026-05-05 21:54 | 53.66143 | -2.01630 | 36085 ft | 437 kts | 326° |
| 2026-05-05 21:55 | 53.71296 | -2.07072 | 36081 ft | 437 kts | 326° |
| 2026-05-05 21:55 | 53.76671 | -2.11905 | 36095 ft | 440 kts | 335° |
| 2026-05-05 21:56 | 53.82369 | -2.15754 | 36087 ft | 440 kts | 335° |
| 2026-05-05 21:56 | 53.88048 | -2.19637 | 36089 ft | 440 kts | 335° |
| 2026-05-05 21:57 | 53.93724 | -2.23534 | 36092 ft | 440 kts | 335° |
| 2026-05-05 21:57 | 53.99368 | -2.27418 | 36101 ft | 440 kts | 335° |
| 2026-05-05 21:58 | 54.05048 | -2.31337 | 36103 ft | 440 kts | 335° |
| 2026-05-05 21:58 | 54.10719 | -2.35259 | 36093 ft | 440 kts | 335° |
| 2026-05-05 21:59 | 54.16393 | -2.39187 | 36092 ft | 440 kts | 335° |
| 2026-05-05 21:59 | 54.22060 | -2.43128 | 36091 ft | 440 kts | 335° |
| 2026-05-05 22:00 | 54.27726 | -2.47082 | 36106 ft | 440 kts | 335° |
| 2026-05-05 22:00 | 54.33395 | -2.51044 | 36104 ft | 440 kts | 335° |
| 2026-05-05 22:01 | 54.39049 | -2.55011 | 36102 ft | 439 kts | 335° |
| 2026-05-05 22:01 | 54.44708 | -2.59000 | 36100 ft | 439 kts | 334° |
| 2026-05-05 22:02 | 54.50368 | -2.63003 | 36102 ft | 439 kts | 334° |
| 2026-05-05 22:02 | 54.56019 | -2.67005 | 36104 ft | 439 kts | 334° |
| 2026-05-05 22:03 | 54.61675 | -2.71018 | 36099 ft | 439 kts | 334° |
| 2026-05-05 22:03 | 54.67328 | -2.75045 | 36103 ft | 439 kts | 334° |
| 2026-05-05 22:04 | 54.72974 | -2.79078 | 36131 ft | 439 kts | 334° |
| 2026-05-05 22:04 | 54.78617 | -2.83111 | 36122 ft | 439 kts | 334° |
| 2026-05-05 22:05 | 54.84254 | -2.87164 | 36118 ft | 438 kts | 334° |
| 2026-05-05 22:05 | 54.89887 | -2.91238 | 36115 ft | 438 kts | 334° |
| 2026-05-05 22:06 | 54.95514 | -2.95311 | 36118 ft | 438 kts | 334° |
| 2026-05-05 22:06 | 55.01151 | -2.99380 | 36132 ft | 438 kts | 334° |
| 2026-05-05 22:07 | 55.06777 | -3.03467 | 36135 ft | 438 kts | 334° |
| 2026-05-05 22:07 | 55.12359 | -3.07547 | 36126 ft | 437 kts | 334° |
| 2026-05-05 22:08 | 55.17975 | -3.11651 | 36122 ft | 437 kts | 334° |
| 2026-05-05 22:08 | 55.23584 | -3.15758 | 36143 ft | 437 kts | 334° |
| 2026-05-05 22:09 | 55.29232 | -3.19920 | 36134 ft | 437 kts | 333° |
| 2026-05-05 22:09 | 55.34834 | -3.24075 | 36133 ft | 438 kts | 333° |
| 2026-05-05 22:10 | 55.40448 | -3.28240 | 36134 ft | 438 kts | 333° |
| 2026-05-05 22:10 | 55.46065 | -3.32397 | 36138 ft | 438 kts | 333° |
| 2026-05-05 22:11 | 55.51330 | -3.37566 | 36151 ft | 429 kts | 317° |
| 2026-05-05 22:11 | 55.55795 | -3.44507 | 36145 ft | 428 kts | 315° |
| 2026-05-05 22:12 | 55.60249 | -3.51485 | 36138 ft | 428 kts | 315° |
| 2026-05-05 22:12 | 55.64660 | -3.58432 | 36132 ft | 427 kts | 314° |
| 2026-05-05 22:13 | 55.69125 | -3.65495 | 36129 ft | 428 kts | 314° |
| 2026-05-05 22:13 | 55.73534 | -3.72489 | 36154 ft | 428 kts | 314° |
| 2026-05-05 22:14 | 55.77967 | -3.79543 | 36147 ft | 428 kts | 314° |
| 2026-05-05 22:14 | 55.82395 | -3.86619 | 36141 ft | 427 kts | 314° |
| 2026-05-05 22:15 | 55.86804 | -3.93699 | 36142 ft | 427 kts | 314° |
| 2026-05-05 22:15 | 55.91219 | -4.00794 | 36143 ft | 427 kts | 314° |
| 2026-05-05 22:16 | 55.95629 | -4.07892 | 36073 ft | 427 kts | 314° |
| 2026-05-05 22:16 | 55.97832 | -4.11449 | 35817 ft | 426 kts | 314° |
| 2026-05-05 22:16 | 56.00028 | -4.15006 | 35476 ft | 426 kts | 314° |
| 2026-05-05 22:16 | 56.02236 | -4.18591 | 34669 ft | 429 kts | 314° |
| 2026-05-05 22:17 | 56.04451 | -4.22193 | 33954 ft | 429 kts | 314° |
| 2026-05-05 22:17 | 56.06643 | -4.25761 | 33428 ft | 423 kts | 314° |
| 2026-05-05 22:17 | 56.08806 | -4.29287 | 32884 ft | 418 kts | 314° |
| 2026-05-05 22:17 | 56.11082 | -4.32494 | 32353 ft | 418 kts | 324° |
| 2026-05-05 22:18 | 56.13667 | -4.34872 | 31800 ft | 419 kts | 334° |
| 2026-05-05 22:18 | 56.16473 | -4.36339 | 31263 ft | 422 kts | 345° |
| 2026-05-05 22:18 | 56.19401 | -4.36825 | 30714 ft | 425 kts | 356° |
| 2026-05-05 22:18 | 56.22356 | -4.36351 | 30171 ft | 426 kts | 3° |
| 2026-05-05 22:19 | 56.25291 | -4.35656 | 29567 ft | 424 kts | 3° |
| 2026-05-05 22:19 | 56.28166 | -4.34966 | 29045 ft | 419 kts | 3° |
| 2026-05-05 22:19 | 56.31043 | -4.34276 | 28525 ft | 415 kts | 3° |
| 2026-05-05 22:19 | 56.33887 | -4.33602 | 28013 ft | 410 kts | 3° |
| 2026-05-05 22:20 | 56.36700 | -4.32938 | 27512 ft | 406 kts | 3° |
| 2026-05-05 22:20 | 56.39480 | -4.32275 | 27035 ft | 402 kts | 3° |
| 2026-05-05 22:20 | 56.42241 | -4.31612 | 26554 ft | 398 kts | 3° |
| 2026-05-05 22:20 | 56.44973 | -4.30956 | 26104 ft | 395 kts | 3° |
| 2026-05-05 22:21 | 56.47686 | -4.30311 | 25673 ft | 391 kts | 3° |
| 2026-05-05 22:21 | 56.50364 | -4.29672 | 25263 ft | 387 kts | 2° |
| 2026-05-05 22:21 | 56.53024 | -4.29036 | 24814 ft | 384 kts | 3° |
| 2026-05-05 22:21 | 56.55657 | -4.28408 | 24385 ft | 380 kts | 3° |
| 2026-05-05 22:22 | 56.58269 | -4.27782 | 23948 ft | 377 kts | 3° |
| 2026-05-05 22:22 | 56.60864 | -4.27156 | 23481 ft | 374 kts | 3° |
| 2026-05-05 22:22 | 56.63433 | -4.26537 | 23036 ft | 370 kts | 3° |
| 2026-05-05 22:22 | 56.65974 | -4.25931 | 22598 ft | 367 kts | 3° |
| 2026-05-05 22:23 | 56.68490 | -4.25328 | 22178 ft | 363 kts | 3° |
| 2026-05-05 22:23 | 56.70986 | -4.24725 | 21745 ft | 360 kts | 3° |
| 2026-05-05 22:23 | 56.73457 | -4.24125 | 21322 ft | 356 kts | 3° |
| 2026-05-05 22:23 | 56.75907 | -4.23529 | 20889 ft | 354 kts | 3° |
| 2026-05-05 22:24 | 56.78337 | -4.22937 | 20484 ft | 351 kts | 3° |
| 2026-05-05 22:24 | 56.80753 | -4.22353 | 20046 ft | 349 kts | 3° |
| 2026-05-05 22:24 | 56.83153 | -4.21775 | 19626 ft | 347 kts | 3° |
| 2026-05-05 22:24 | 56.85544 | -4.21193 | 19208 ft | 345 kts | 3° |
| 2026-05-05 22:25 | 56.87913 | -4.20612 | 18799 ft | 344 kts | 3° |
| 2026-05-05 22:25 | 56.90283 | -4.20032 | 18376 ft | 342 kts | 3° |
| 2026-05-05 22:25 | 56.92637 | -4.19464 | 17936 ft | 340 kts | 3° |
| 2026-05-05 22:25 | 56.94972 | -4.18904 | 17527 ft | 337 kts | 3° |
| 2026-05-05 22:26 | 56.97285 | -4.18348 | 17127 ft | 334 kts | 3° |
| 2026-05-05 22:26 | 56.99581 | -4.17791 | 16740 ft | 331 kts | 3° |
| 2026-05-05 22:26 | 57.01858 | -4.17232 | 16356 ft | 329 kts | 3° |
| 2026-05-05 22:26 | 57.04118 | -4.16673 | 15970 ft | 326 kts | 4° |
| 2026-05-05 22:27 | 57.06352 | -4.16118 | 15584 ft | 322 kts | 4° |
| 2026-05-05 22:27 | 57.08567 | -4.15567 | 15201 ft | 320 kts | 4° |
| 2026-05-05 22:27 | 57.10776 | -4.15019 | 14819 ft | 318 kts | 4° |
| 2026-05-05 22:27 | 57.12961 | -4.14479 | 14440 ft | 316 kts | 4° |
| 2026-05-05 22:28 | 57.15111 | -4.13948 | 14077 ft | 315 kts | 4° |
| 2026-05-05 22:28 | 57.17270 | -4.13413 | 13664 ft | 312 kts | 4° |
| 2026-05-05 22:28 | 57.19443 | -4.12874 | 13276 ft | 309 kts | 4° |
| 2026-05-05 22:28 | 57.21537 | -4.12357 | 12900 ft | 306 kts | 4° |
| 2026-05-05 22:29 | 57.23644 | -4.11834 | 12519 ft | 304 kts | 4° |
| 2026-05-05 22:29 | 57.25729 | -4.11314 | 12145 ft | 301 kts | 4° |
| 2026-05-05 22:29 | 57.27797 | -4.10798 | 11764 ft | 298 kts | 4° |
| 2026-05-05 22:29 | 57.29844 | -4.10285 | 11394 ft | 296 kts | 4° |
| 2026-05-05 22:30 | 57.31219 | -4.09939 | 11134 ft | 295 kts | 4° |
| 2026-05-05 22:30 | 57.33898 | -4.09273 | 10638 ft | 293 kts | 4° |
| 2026-05-05 22:30 | 57.35262 | -4.08933 | 10382 ft | 292 kts | 5° |
| 2026-05-05 22:30 | 57.37242 | -4.08437 | 10205 ft | 283 kts | 5° |
| 2026-05-05 22:31 | 57.39163 | -4.07952 | 10003 ft | 276 kts | 5° |
| 2026-05-05 22:31 | 57.41079 | -4.07469 | 9653 ft | 279 kts | 5° |
| 2026-05-05 22:31 | 57.43009 | -4.06983 | 9218 ft | 278 kts | 5° |
| 2026-05-05 22:31 | 57.44928 | -4.06499 | 8748 ft | 278 kts | 5° |
| 2026-05-05 22:32 | 57.46824 | -4.06021 | 8215 ft | 273 kts | 6° |
| 2026-05-05 22:32 | 57.48687 | -4.05546 | 7711 ft | 269 kts | 6° |
| 2026-05-05 22:32 | 57.50538 | -4.05072 | 7237 ft | 267 kts | 6° |
| 2026-05-05 22:32 | 57.52370 | -4.04608 | 6762 ft | 265 kts | 6° |
| 2026-05-05 22:33 | 57.54188 | -4.04037 | 6273 ft | 265 kts | 14° |
| 2026-05-05 22:33 | 57.55891 | -4.02778 | 5798 ft | 263 kts | 23° |
| 2026-05-05 22:33 | 57.57545 | -4.01384 | 5328 ft | 260 kts | 23° |
| 2026-05-05 22:33 | 57.59164 | -4.00031 | 4875 ft | 257 kts | 23° |
| 2026-05-05 22:34 | 57.60820 | -3.98648 | 4403 ft | 256 kts | 24° |
| 2026-05-05 22:34 | 57.62445 | -3.97294 | 3947 ft | 256 kts | 24° |
| 2026-05-05 22:34 | 57.64066 | -3.95943 | 3491 ft | 255 kts | 24° |
| 2026-05-05 22:34 | 57.65649 | -3.94620 | 3339 ft | 241 kts | 24° |
| 2026-05-05 22:35 | 57.67150 | -3.93366 | 3180 ft | 230 kts | 24° |
| 2026-05-05 22:35 | 57.68576 | -3.92174 | 3065 ft | 219 kts | 24° |
| 2026-05-05 22:35 | 57.69810 | -3.90616 | 3009 ft | 214 kts | 47° |
| 2026-05-05 22:35 | 57.70578 | -3.88256 | 2962 ft | 215 kts | 71° |
| 2026-05-05 22:36 | 57.70744 | -3.85499 | 2901 ft | 216 kts | 96° |
| 2026-05-05 22:36 | 57.70275 | -3.82857 | 2862 ft | 212 kts | 121° |
| 2026-05-05 22:36 | 57.69303 | -3.80893 | 2799 ft | 203 kts | 145° |
| 2026-05-05 22:36 | 57.68050 | -3.79855 | 2749 ft | 200 kts | 168° |
| 2026-05-05 22:37 | 57.66669 | -3.79802 | 2701 ft | 200 kts | 191° |
| 2026-05-05 22:37 | 57.65374 | -3.80785 | 2686 ft | 199 kts | 216° |
| 2026-05-05 22:37 | 57.64387 | -3.82581 | 2695 ft | 199 kts | 230° |
| 2026-05-05 22:37 | 57.63531 | -3.84469 | 2701 ft | 185 kts | 231° |
| 2026-05-05 22:38 | 57.62717 | -3.86258 | 2507 ft | 179 kts | 231° |
| 2026-05-05 22:38 | 57.61909 | -3.88031 | 2268 ft | 175 kts | 230° |
| 2026-05-05 22:38 | 57.61146 | -3.89702 | 2038 ft | 166 kts | 230° |
| 2026-05-05 22:38 | 57.60428 | -3.91272 | 1841 ft | 154 kts | 231° |
| 2026-05-05 22:39 | 57.59748 | -3.92760 | 1621 ft | 148 kts | 231° |
| 2026-05-05 22:39 | 57.59085 | -3.94209 | 1392 ft | 146 kts | 231° |
| 2026-05-05 22:39 | 57.58427 | -3.95646 | 1182 ft | 145 kts | 229° |
| 2026-05-05 22:39 | 57.57781 | -3.97063 | 981 ft | 143 kts | 230° |
| 2026-05-05 22:40 | 57.57147 | -3.98466 | 772 ft | 141 kts | 230° |
| 2026-05-05 22:40 | 57.56511 | -3.99855 | 580 ft | 140 kts | 230° |
| 2026-05-05 22:40 | 57.55881 | -4.01234 | 388 ft | 139 kts | 229° |
| 2026-05-05 22:40 | 57.55254 | -4.02577 | 204 ft | 139 kts | 229° |
| 2026-05-05 22:41 | 57.54622 | -4.03948 | 31 ft | 133 kts | 229° |
| 2026-05-05 22:41 | 57.54192 | -4.04883 | 34 ft | 52 kts | 229° |
| 2026-05-05 22:41 | 57.54000 | -4.05300 | 36 ft | 34 kts | 230° |
| 2026-05-05 22:41 | 57.53852 | -4.05623 | 39 ft | 32 kts | 230° |
| 2026-05-05 22:42 | 57.53738 | -4.05873 | 35 ft | 22 kts | 230° |
| 2026-05-05 22:42 | 57.53737 | -4.06022 | 38 ft | 9 kts | 291° |
| 2026-05-05 22:42 | 57.53760 | -4.06111 | 40 ft | 8 kts | 298° |
| 2026-05-05 22:42 | 57.53788 | -4.06172 | 46 ft | 4 kts | 328° |
| 2026-05-05 22:43 | 57.53839 | -4.06181 | 47 ft | 12 kts | 4° |
| 2026-05-05 22:43 | 57.53900 | -4.06171 | 47 ft | 3 kts | 5° |
| 2026-05-05 22:43 | 57.53914 | -4.06185 | 47 ft | 4 kts | 320° |
| 2026-05-05 22:43 | 57.53922 | -4.06231 | 47 ft | 3 kts | 277° |
| 2026-05-05 22:44 | 57.53923 | -4.06244 | 47 ft | 1 kts | 275° |
| 2026-05-05 22:44 | 57.53923 | -4.06248 | 47 ft | 0 kts | 275° |
| 2026-05-05 22:44 | 57.53923 | -4.06253 | 47 ft | 0 kts | 275° |